Flight Briefing for CPX251

Departure Arrival
Ted Stevens Anchorage International Airport (PANC)
Click to view FAA NOTAMS
Huntsville International Airport (KHSV)
Click to view FAA NOTAMS
Departure Time Arrival Time
N/A N/A
Aircraft Distance
B767-300BDSF 2850nm
Departure METAR Arrival METAR
PANC 192153Z 36009KT 10SM SCT085 M02/M11 A3014 RMK AO2 SLP207 T10171111 KHSV 192235Z 12008KT 2SM TSRA BR SCT010 BKN055CB OVC080 06/05 A3023 RMK AO2 SFC VIS 3 LTG DSNT N AND NE TSE2156E10B12 OCNL LTGICCCCG N TS N MOV NE P0005 T00610050 $
Suggested Route
TED YESKA NCA13 YXY J515 YYE J537 YPE J601 XD YWV J475 VLN J483 MOT ABR Q19 DSM J45 IRK FAM J151 VUZ


View recent IFR Routes data
Notes



Charts and Procedures

Charts for PANC
No chart available
Charts for KHSV
No chart available

Ventusky Weather




{"cat":null,"equip":null,"transponder":null,"pbn":"PBN\/","maxpax":null,"oew":"0.0","mzfw":"0.0","mtow":"0.0","mlw":"0.0","maxfuel":"0.0"} DEVELOPMENTAL TEST USE ONLY